sensor_id;sensor_type;location;lat;lon;timestamp;pressure;altitude;pressure_sealevel;temperature
71807;BMP280;59655;42.590;23.364;2023-04-30T00:00:31;91211.16;;;9.94
71807;BMP280;59655;42.590;23.364;2023-04-30T00:02:57;91210.28;;;9.92
71807;BMP280;59655;42.590;23.364;2023-04-30T00:05:22;91209.41;;;9.89
71807;BMP280;59655;42.590;23.364;2023-04-30T00:07:47;91213.69;;;9.84
71807;BMP280;59655;42.590;23.364;2023-04-30T00:10:13;91206.97;;;9.76
71807;BMP280;59655;42.590;23.364;2023-04-30T00:12:38;91215.81;;;9.71
71807;BMP280;59655;42.590;23.364;2023-04-30T00:15:04;91214.78;;;9.66
71807;BMP280;59655;42.590;23.364;2023-04-30T00:17:30;91207.72;;;9.69
71807;BMP280;59655;42.590;23.364;2023-04-30T00:19:55;91211.44;;;9.65
71807;BMP280;59655;42.590;23.364;2023-04-30T00:22:20;91209.63;;;9.68
71807;BMP280;59655;42.590;23.364;2023-04-30T00:24:46;91208.59;;;9.63
71807;BMP280;59655;42.590;23.364;2023-04-30T00:27:12;91208.94;;;9.60
71807;BMP280;59655;42.590;23.364;2023-04-30T00:29:37;91206.66;;;9.64
71807;BMP280;59655;42.590;23.364;2023-04-30T00:32:03;91203.13;;;9.61
71807;BMP280;59655;42.590;23.364;2023-04-30T00:34:28;91207.72;;;9.61
71807;BMP280;59655;42.590;23.364;2023-04-30T00:36:53;91207.00;;;9.60
71807;BMP280;59655;42.590;23.364;2023-04-30T00:39:19;91203.16;;;9.54
71807;BMP280;59655;42.590;23.364;2023-04-30T00:41:44;91198.91;;;9.51
71807;BMP280;59655;42.590;23.364;2023-04-30T00:44:10;91202.44;;;9.53
71807;BMP280;59655;42.590;23.364;2023-04-30T00:46:35;91203.66;;;9.52
71807;BMP280;59655;42.590;23.364;2023-04-30T00:49:01;91200.84;;;9.50
71807;BMP280;59655;42.590;23.364;2023-04-30T00:51:30;91200.84;;;9.50
71807;BMP280;59655;42.590;23.364;2023-04-30T00:53:57;91200.00;;;9.48
71807;BMP280;59655;42.590;23.364;2023-04-30T00:56:24;91199.28;;;9.47
71807;BMP280;59655;42.590;23.364;2023-04-30T00:58:51;91189.22;;;9.45
71807;BMP280;59655;42.590;23.364;2023-04-30T01:01:22;91196.47;;;9.37
71807;BMP280;59655;42.590;23.364;2023-04-30T01:03:48;91196.47;;;9.37
71807;BMP280;59655;42.590;23.364;2023-04-30T01:06:13;91201.75;;;9.30
71807;BMP280;59655;42.590;23.364;2023-04-30T01:08:39;91191.16;;;9.30
71807;BMP280;59655;42.590;23.364;2023-04-30T01:13:47;91196.63;;;9.32
71807;BMP280;59655;42.590;23.364;2023-04-30T01:16:23;91196.28;;;9.28
71807;BMP280;59655;42.590;23.364;2023-04-30T01:19:28;91191.91;;;9.22
71807;BMP280;59655;42.590;23.364;2023-04-30T01:21:58;91196.81;;;9.26
71807;BMP280;59655;42.590;23.364;2023-04-30T01:24:48;91192.59;;;9.23
71807;BMP280;59655;42.590;23.364;2023-04-30T01:29:56;91199.13;;;9.14
71807;BMP280;59655;42.590;23.364;2023-04-30T01:32:22;91188.94;;;9.11
71807;BMP280;59655;42.590;23.364;2023-04-30T01:34:47;91192.25;;;9.11
71807;BMP280;59655;42.590;23.364;2023-04-30T01:43:06;91192.44;;;8.98
71807;BMP280;59655;42.590;23.364;2023-04-30T01:51:18;91190.81;;;9.02
71807;BMP280;59655;42.590;23.364;2023-04-30T01:53:45;91188.03;;;9.00
71807;BMP280;59655;42.590;23.364;2023-04-30T01:56:20;91181.50;;;9.01
71807;BMP280;59655;42.590;23.364;2023-04-30T01:58:51;91182.72;;;9.00
71807;BMP280;59655;42.590;23.364;2023-04-30T02:01:30;91188.03;;;9.00
71807;BMP280;59655;42.590;23.364;2023-04-30T02:03:56;91182.03;;;9.00
71807;BMP280;59655;42.590;23.364;2023-04-30T02:06:22;91183.63;;;9.03
71807;BMP280;59655;42.590;23.364;2023-04-30T02:08:53;91183.06;;;9.05
71807;BMP280;59655;42.590;23.364;2023-04-30T02:11:18;91194.72;;;9.01
71807;BMP280;59655;42.590;23.364;2023-04-30T02:13:44;91188.53;;;8.99
71807;BMP280;59655;42.590;23.364;2023-04-30T02:16:09;91182.03;;;9.00
71807;BMP280;59655;42.590;23.364;2023-04-30T02:18:35;91185.03;;;8.96
71807;BMP280;59655;42.590;23.364;2023-04-30T02:21:00;91192.59;;;8.92
71807;BMP280;59655;42.590;23.364;2023-04-30T02:23:26;91185.03;;;8.96
71807;BMP280;59655;42.590;23.364;2023-04-30T02:25:51;91174.06;;;8.92
71807;BMP280;59655;42.590;23.364;2023-04-30T02:28:16;91177.09;;;8.96
71807;BMP280;59655;42.590;23.364;2023-04-30T02:30:42;91181.16;;;8.90
71807;BMP280;59655;42.590;23.364;2023-04-30T02:33:07;91186.44;;;8.90
71807;BMP280;59655;42.590;23.364;2023-04-30T02:35:36;91177.59;;;8.87
71807;BMP280;59655;42.590;23.364;2023-04-30T02:38:02;91189.06;;;8.82
71807;BMP280;59655;42.590;23.364;2023-04-30T02:40:27;91185.53;;;8.79
71807;BMP280;59655;42.590;23.364;2023-04-30T02:42:52;91190.47;;;8.75
71807;BMP280;59655;42.590;23.364;2023-04-30T02:45:20;91181.66;;;8.65
71807;BMP280;59655;42.590;23.364;2023-04-30T02:47:45;91185.66;;;8.51
71807;BMP280;59655;42.590;23.364;2023-04-30T02:50:11;91181.13;;;8.67
71807;BMP280;59655;42.590;23.364;2023-04-30T02:52:36;91187.63;;;8.73
71807;BMP280;59655;42.590;23.364;2023-04-30T02:55:02;91184.66;;;8.77
71807;BMP280;59655;42.590;23.364;2023-04-30T02:57:28;91186.94;;;8.73
71807;BMP280;59655;42.590;23.364;2023-04-30T02:59:53;91193.28;;;8.77
71807;BMP280;59655;42.590;23.364;2023-04-30T03:02:19;91191.91;;;8.69
71807;BMP280;59655;42.590;23.364;2023-04-30T03:04:45;91195.06;;;8.75
71807;BMP280;59655;42.590;23.364;2023-04-30T03:07:10;91204.06;;;8.79
71807;BMP280;59655;42.590;23.364;2023-04-30T03:09:36;91196.47;;;8.84
71807;BMP280;59655;42.590;23.364;2023-04-30T03:12:01;91200.00;;;8.86
71807;BMP280;59655;42.590;23.364;2023-04-30T03:14:27;91207.03;;;8.91
71807;BMP280;59655;42.590;23.364;2023-04-30T03:16:52;91200.00;;;8.94
71807;BMP280;59655;42.590;23.364;2023-04-30T03:19:18;91204.56;;;8.93
71807;BMP280;59655;42.590;23.364;2023-04-30T03:21:46;91202.66;;;8.94
71807;BMP280;59655;42.590;23.364;2023-04-30T03:24:11;91210.41;;;8.92
71807;BMP280;59655;42.590;23.364;2023-04-30T03:26:38;91203.53;;;8.96
71807;BMP280;59655;42.590;23.364;2023-04-30T03:29:03;91206.19;;;8.96
71807;BMP280;59655;42.590;23.364;2023-04-30T03:31:28;91203.88;;;8.93
71807;BMP280;59655;42.590;23.364;2023-04-30T03:33:54;91205.66;;;8.98
71807;BMP280;59655;42.590;23.364;2023-04-30T03:36:19;91210.25;;;8.97
71807;BMP280;59655;42.590;23.364;2023-04-30T03:38:45;91209.19;;;9.00
71807;BMP280;59655;42.590;23.364;2023-04-30T03:41:10;91207.06;;;8.99
71807;BMP280;59655;42.590;23.364;2023-04-30T03:43:36;91219.94;;;9.02
71807;BMP280;59655;42.590;23.364;2023-04-30T03:46:02;91217.31;;;9.10
71807;BMP280;59655;42.590;23.364;2023-04-30T03:48:27;91224.69;;;9.12
71807;BMP280;59655;42.590;23.364;2023-04-30T03:50:53;91229.28;;;9.11
71807;BMP280;59655;42.590;23.364;2023-04-30T03:53:18;91223.13;;;9.16
71807;BMP280;59655;42.590;23.364;2023-04-30T03:55:44;91225.06;;;9.16
71807;BMP280;59655;42.590;23.364;2023-04-30T03:58:09;91228.22;;;9.14
71807;BMP280;59655;42.590;23.364;2023-04-30T04:00:35;91223.66;;;9.22
71807;BMP280;59655;42.590;23.364;2023-04-30T04:03:01;91222.41;;;9.23
71807;BMP280;59655;42.590;23.364;2023-04-30T04:05:26;91229.84;;;9.25
71807;BMP280;59655;42.590;23.364;2023-04-30T04:07:52;91222.41;;;9.31
71807;BMP280;59655;42.590;23.364;2023-04-30T04:10:17;91227.16;;;9.33
71807;BMP280;59655;42.590;23.364;2023-04-30T04:12:42;91220.63;;;9.34
71807;BMP280;59655;42.590;23.364;2023-04-30T04:15:08;91224.53;;;9.33
71807;BMP280;59655;42.590;23.364;2023-04-30T04:17:33;91230.00;;;9.35
71807;BMP280;59655;42.590;23.364;2023-04-30T04:19:59;91223.47;;;9.36
71807;BMP280;59655;42.590;23.364;2023-04-30T04:22:24;91231.59;;;9.38
71807;BMP280;59655;42.590;23.364;2023-04-30T04:24:49;91233.84;;;9.41
71807;BMP280;59655;42.590;23.364;2023-04-30T04:27:15;91238.81;;;9.45
71807;BMP280;59655;42.590;23.364;2023-04-30T04:29:41;91237.78;;;9.48
71807;BMP280;59655;42.590;23.364;2023-04-30T04:32:06;91242.19;;;9.53
71807;BMP280;59655;42.590;23.364;2023-04-30T04:34:32;91245.50;;;9.61
71807;BMP280;59655;42.590;23.364;2023-04-30T04:36:57;91240.56;;;9.65
71807;BMP280;59655;42.590;23.364;2023-04-30T04:39:23;91249.53;;;9.70
71807;BMP280;59655;42.590;23.364;2023-04-30T04:41:48;91243.03;;;9.71
71807;BMP280;59655;42.590;23.364;2023-04-30T04:44:14;91239.47;;;9.76
71807;BMP280;59655;42.590;23.364;2023-04-30T04:46:39;91251.66;;;9.79
71807;BMP280;59655;42.590;23.364;2023-04-30T04:49:08;91243.19;;;9.81
71807;BMP280;59655;42.590;23.364;2023-04-30T04:51:34;91250.78;;;9.84
71807;BMP280;59655;42.590;23.364;2023-04-30T04:53:59;91250.94;;;9.86
71807;BMP280;59655;42.590;23.364;2023-04-30T04:56:24;91253.94;;;9.91
71807;BMP280;59655;42.590;23.364;2023-04-30T04:58:50;91258.19;;;9.94
71807;BMP280;59655;42.590;23.364;2023-04-30T05:01:15;91263.06;;;9.97
71807;BMP280;59655;42.590;23.364;2023-04-30T05:03:41;91260.81;;;10.01
71807;BMP280;59655;42.590;23.364;2023-04-30T05:06:06;91267.81;;;10.06
71807;BMP280;59655;42.590;23.364;2023-04-30T05:08:32;91266.06;;;10.09
71807;BMP280;59655;42.590;23.364;2023-04-30T05:10:57;91260.97;;;10.11
71807;BMP280;59655;42.590;23.364;2023-04-30T05:13:23;91261.09;;;10.13
71807;BMP280;59655;42.590;23.364;2023-04-30T05:15:50;91268.69;;;10.17
71807;BMP280;59655;42.590;23.364;2023-04-30T05:18:15;91267.63;;;10.20
71807;BMP280;59655;42.590;23.364;2023-04-30T05:20:41;91267.06;;;10.21
71807;BMP280;59655;42.590;23.364;2023-04-30T05:23:06;91266.56;;;10.23
71807;BMP280;59655;42.590;23.364;2023-04-30T05:25:32;91273.25;;;10.24
71807;BMP280;59655;42.590;23.364;2023-04-30T05:27:57;91268.66;;;10.24
71807;BMP280;59655;42.590;23.364;2023-04-30T05:30:23;91270.25;;;10.27
71807;BMP280;59655;42.590;23.364;2023-04-30T05:32:48;91267.91;;;10.31
71807;BMP280;59655;42.590;23.364;2023-04-30T05:35:17;91264.22;;;10.35
71807;BMP280;59655;42.590;23.364;2023-04-30T05:37:42;91265.63;;;10.36
71807;BMP280;59655;42.590;23.364;2023-04-30T05:40:08;91264.38;;;10.37
71807;BMP280;59655;42.590;23.364;2023-04-30T05:42:34;91270.00;;;10.41
71807;BMP280;59655;42.590;23.364;2023-04-30T05:45:01;91264.88;;;10.43
71807;BMP280;59655;42.590;23.364;2023-04-30T05:47:26;91264.34;;;10.44
71807;BMP280;59655;42.590;23.364;2023-04-30T05:49:52;91254.59;;;10.47
71807;BMP280;59655;42.590;23.364;2023-04-30T05:52:17;91273.50;;;10.51
71807;BMP280;59655;42.590;23.364;2023-04-30T05:54:43;91265.72;;;10.53
71807;BMP280;59655;42.590;23.364;2023-04-30T05:57:08;91266.03;;;10.57
71807;BMP280;59655;42.590;23.364;2023-04-30T05:59:33;91270.09;;;10.58
71807;BMP280;59655;42.590;23.364;2023-04-30T06:01:59;91269.56;;;10.60
71807;BMP280;59655;42.590;23.364;2023-04-30T06:04:24;91267.78;;;10.62
71807;BMP280;59655;42.590;23.364;2023-04-30T06:06:50;91266.72;;;10.65
71807;BMP280;59655;42.590;23.364;2023-04-30T06:09:15;91276.25;;;10.68
71807;BMP280;59655;42.590;23.364;2023-04-30T06:11:41;91273.72;;;10.70
71807;BMP280;59655;42.590;23.364;2023-04-30T06:14:06;91274.63;;;10.73
71807;BMP280;59655;42.590;23.364;2023-04-30T06:16:32;91274.28;;;10.77
71807;BMP280;59655;42.590;23.364;2023-04-30T06:18:57;91278.47;;;10.80
71807;BMP280;59655;42.590;23.364;2023-04-30T06:21:22;91274.75;;;10.83
71807;BMP280;59655;42.590;23.364;2023-04-30T06:23:51;91278.44;;;10.87
71807;BMP280;59655;42.590;23.364;2023-04-30T06:26:18;91277.19;;;10.88
71807;BMP280;59655;42.590;23.364;2023-04-30T06:28:43;91278.94;;;10.93
71807;BMP280;59655;42.590;23.364;2023-04-30T06:31:09;91287.22;;;10.97
71807;BMP280;59655;42.590;23.364;2023-04-30T06:33:34;91277.47;;;11.00
71807;BMP280;59655;42.590;23.364;2023-04-30T06:36:00;91279.75;;;11.04
71807;BMP280;59655;42.590;23.364;2023-04-30T06:38:25;91284.88;;;11.09
71807;BMP280;59655;42.590;23.364;2023-04-30T06:40:51;91280.56;;;11.14
71807;BMP280;59655;42.590;23.364;2023-04-30T06:43:16;91286.75;;;11.16
71807;BMP280;59655;42.590;23.364;2023-04-30T06:45:42;91290.44;;;11.21
71807;BMP280;59655;42.590;23.364;2023-04-30T06:48:07;91285.13;;;11.21
71807;BMP280;59655;42.590;23.364;2023-04-30T06:50:33;91297.84;;;11.23
71807;BMP280;59655;42.590;23.364;2023-04-30T06:52:59;91289.56;;;11.18
71807;BMP280;59655;42.590;23.364;2023-04-30T06:55:24;91299.31;;;11.16
71807;BMP280;59655;42.590;23.364;2023-04-30T06:57:50;91302.97;;;11.21
71807;BMP280;59655;42.590;23.364;2023-04-30T07:00:16;91304.41;;;11.22
71807;BMP280;59655;42.590;23.364;2023-04-30T07:02:42;91299.09;;;11.22
71807;BMP280;59655;42.590;23.364;2023-04-30T07:05:08;91307.00;;;11.29
71807;BMP280;59655;42.590;23.364;2023-04-30T07:07:33;91302.72;;;11.34
71807;BMP280;59655;42.590;23.364;2023-04-30T07:09:59;91300.56;;;11.40
71807;BMP280;59655;42.590;23.364;2023-04-30T07:12:26;91303.72;;;11.46
71807;BMP280;59655;42.590;23.364;2023-04-30T07:14:51;91298.69;;;11.50
71807;BMP280;59655;42.590;23.364;2023-04-30T07:17:17;91306.31;;;11.54
71807;BMP280;59655;42.590;23.364;2023-04-30T07:19:42;91299.66;;;11.62
71807;BMP280;59655;42.590;23.364;2023-04-30T07:22:08;91299.66;;;11.62
71807;BMP280;59655;42.590;23.364;2023-04-30T07:24:34;91303.50;;;11.69
71807;BMP280;59655;42.590;23.364;2023-04-30T07:26:59;91298.38;;;11.71
71807;BMP280;59655;42.590;23.364;2023-04-30T07:29:28;91298.50;;;11.73
71807;BMP280;59655;42.590;23.364;2023-04-30T07:31:53;91299.53;;;11.78
71807;BMP280;59655;42.590;23.364;2023-04-30T07:34:19;91305.38;;;11.76
71807;BMP280;59655;42.590;23.364;2023-04-30T07:36:49;91306.09;;;11.77
71807;BMP280;59655;42.590;23.364;2023-04-30T07:39:15;91312.22;;;11.87
71807;BMP280;59655;42.590;23.364;2023-04-30T07:41:42;91319.63;;;11.89
71807;BMP280;59655;42.590;23.364;2023-04-30T07:44:07;91313.78;;;11.90
71807;BMP280;59655;42.590;23.364;2023-04-30T07:46:33;91317.28;;;11.93
71807;BMP280;59655;42.590;23.364;2023-04-30T07:48:59;91314.09;;;11.94
71807;BMP280;59655;42.590;23.364;2023-04-30T07:51:24;91320.50;;;11.91
71807;BMP280;59655;42.590;23.364;2023-04-30T07:53:53;91327.78;;;11.91
71807;BMP280;59655;42.590;23.364;2023-04-30T07:56:18;91318.69;;;11.94
71807;BMP280;59655;42.590;23.364;2023-04-30T07:58:46;91318.84;;;11.96
71807;BMP280;59655;42.590;23.364;2023-04-30T08:01:13;91324.34;;;11.98
71807;BMP280;59655;42.590;23.364;2023-04-30T08:03:40;91325.56;;;11.97
71807;BMP280;59655;42.590;23.364;2023-04-30T08:06:06;91331.59;;;11.97
71807;BMP280;59655;42.590;23.364;2023-04-30T08:08:32;91332.84;;;11.96
71807;BMP280;59655;42.590;23.364;2023-04-30T08:10:57;91323.09;;;11.99
71807;BMP280;59655;42.590;23.364;2023-04-30T08:13:22;91326.75;;;12.03
71807;BMP280;59655;42.590;23.364;2023-04-30T08:15:48;91326.19;;;12.05
71807;BMP280;59655;42.590;23.364;2023-04-30T08:18:13;91334.72;;;12.03
71807;BMP280;59655;42.590;23.364;2023-04-30T08:20:39;91337.31;;;12.11
71807;BMP280;59655;42.590;23.364;2023-04-30T08:23:04;91338.88;;;12.14
71807;BMP280;59655;42.590;23.364;2023-04-30T08:25:30;91334.25;;;12.15
71807;BMP280;59655;42.590;23.364;2023-04-30T08:27:56;91331.38;;;12.20
71807;BMP280;59655;42.590;23.364;2023-04-30T08:30:21;91333.50;;;12.22
71807;BMP280;59655;42.590;23.364;2023-04-30T08:32:47;91339.28;;;12.28
71807;BMP280;59655;42.590;23.364;2023-04-30T08:35:13;91338.72;;;12.30
71807;BMP280;59655;42.590;23.364;2023-04-30T08:37:38;91331.28;;;12.28
71807;BMP280;59655;42.590;23.364;2023-04-30T08:40:04;91330.88;;;12.32
71807;BMP280;59655;42.590;23.364;2023-04-30T08:42:35;91336.78;;;12.30
71807;BMP280;59655;42.590;23.364;2023-04-30T08:45:03;91341.44;;;12.39
71807;BMP280;59655;42.590;23.364;2023-04-30T08:47:29;91343.97;;;12.37
71807;BMP280;59655;42.590;23.364;2023-04-30T08:49:55;91337.56;;;12.40
71807;BMP280;59655;42.590;23.364;2023-04-30T08:52:21;91332.06;;;12.38
71807;BMP280;59655;42.590;23.364;2023-04-30T08:54:47;91334.72;;;12.38
71807;BMP280;59655;42.590;23.364;2023-04-30T08:57:15;91335.91;;;12.45
71807;BMP280;59655;42.590;23.364;2023-04-30T08:59:44;91323.69;;;12.42
71807;BMP280;59655;42.590;23.364;2023-04-30T09:02:09;91329.56;;;12.40
71807;BMP280;59655;42.590;23.364;2023-04-30T09:04:35;91329.41;;;12.38
71807;BMP280;59655;42.590;23.364;2023-04-30T09:07:00;91333.25;;;12.45
71807;BMP280;59655;42.590;23.364;2023-04-30T09:09:29;91333.25;;;12.45
71807;BMP280;59655;42.590;23.364;2023-04-30T09:12:17;91320.47;;;12.43
71807;BMP280;59655;42.590;23.364;2023-04-30T09:15:10;91313.69;;;12.50
71807;BMP280;59655;42.590;23.364;2023-04-30T09:17:35;91317.88;;;12.53
71807;BMP280;59655;42.590;23.364;2023-04-30T09:20:11;91316.44;;;12.69
71807;BMP280;59655;42.590;23.364;2023-04-30T09:22:38;91319.25;;;12.71
71807;BMP280;59655;42.590;23.364;2023-04-30T09:25:05;91313.19;;;12.88
71807;BMP280;59655;42.590;23.364;2023-04-30T09:27:31;91316.16;;;12.92
71807;BMP280;59655;42.590;23.364;2023-04-30T09:29:56;91312.06;;;12.91
71807;BMP280;59655;42.590;23.364;2023-04-30T09:32:22;91304.91;;;12.94
71807;BMP280;59655;42.590;23.364;2023-04-30T09:34:47;91302.84;;;13.02
71807;BMP280;59655;42.590;23.364;2023-04-30T09:37:13;91293.88;;;12.98
71807;BMP280;59655;42.590;23.364;2023-04-30T09:39:50;91284.91;;;13.03
71807;BMP280;59655;42.590;23.364;2023-04-30T09:42:17;91297.09;;;12.96
71807;BMP280;59655;42.590;23.364;2023-04-30T09:44:43;91288.31;;;13.13
71807;BMP280;59655;42.590;23.364;2023-04-30T09:47:14;91286.41;;;13.23
71807;BMP280;59655;42.590;23.364;2023-04-30T09:49:41;91287.50;;;13.20
71807;BMP280;59655;42.590;23.364;2023-04-30T09:52:07;91295.03;;;13.14
71807;BMP280;59655;42.590;23.364;2023-04-30T09:54:33;91276.84;;;13.20
71807;BMP280;59655;42.590;23.364;2023-04-30T09:57:01;91276.16;;;13.20
71807;BMP280;59655;42.590;23.364;2023-04-30T09:59:32;91279.25;;;13.35
71807;BMP280;59655;42.590;23.364;2023-04-30T10:02:04;91276.78;;;13.57
71807;BMP280;59655;42.590;23.364;2023-04-30T10:04:41;91270.63;;;13.64
71807;BMP280;59655;42.590;23.364;2023-04-30T10:07:11;91266.28;;;13.69
71807;BMP280;59655;42.590;23.364;2023-04-30T10:12:42;91275.44;;;13.85
71807;BMP280;59655;42.590;23.364;2023-04-30T10:15:15;91268.66;;;13.74
71807;BMP280;59655;42.590;23.364;2023-04-30T10:17:46;91275.13;;;13.61
71807;BMP280;59655;42.590;23.364;2023-04-30T10:20:12;91278.09;;;13.66
71807;BMP280;59655;42.590;23.364;2023-04-30T10:22:39;91277.09;;;13.71
71807;BMP280;59655;42.590;23.364;2023-04-30T10:25:06;91273.59;;;13.78
71807;BMP280;59655;42.590;23.364;2023-04-30T10:27:35;91263.59;;;13.88
71807;BMP280;59655;42.590;23.364;2023-04-30T10:30:01;91276.69;;;13.84
71807;BMP280;59655;42.590;23.364;2023-04-30T10:32:44;91261.81;;;13.71
71807;BMP280;59655;42.590;23.364;2023-04-30T10:35:15;91267.44;;;13.85
71807;BMP280;59655;42.590;23.364;2023-04-30T10:40:13;91281.16;;;13.62
71807;BMP280;59655;42.590;23.364;2023-04-30T10:42:47;91277.63;;;13.59
71807;BMP280;59655;42.590;23.364;2023-04-30T10:45:15;91304.94;;;13.41
71807;BMP280;59655;42.590;23.364;2023-04-30T10:47:42;91331.06;;;13.15
71807;BMP280;59655;42.590;23.364;2023-04-30T10:50:08;91317.22;;;12.80
71807;BMP280;59655;42.590;23.364;2023-04-30T10:52:36;91346.84;;;12.49
71807;BMP280;59655;42.590;23.364;2023-04-30T10:55:07;91348.50;;;12.27
71807;BMP280;59655;42.590;23.364;2023-04-30T10:57:40;91333.94;;;12.28
71807;BMP280;59655;42.590;23.364;2023-04-30T11:02:44;91305.44;;;12.56
71807;BMP280;59655;42.590;23.364;2023-04-30T11:05:15;91301.00;;;12.68
71807;BMP280;59655;42.590;23.364;2023-04-30T11:07:58;91299.38;;;12.72
71807;BMP280;59655;42.590;23.364;2023-04-30T11:10:25;91305.16;;;12.79
71807;BMP280;59655;42.590;23.364;2023-04-30T11:12:53;91299.72;;;12.86
71807;BMP280;59655;42.590;23.364;2023-04-30T11:15:20;91291.03;;;12.95
71807;BMP280;59655;42.590;23.364;2023-04-30T11:17:55;91297.53;;;13.02
71807;BMP280;59655;42.590;23.364;2023-04-30T11:20:24;91295.19;;;13.06
71807;BMP280;59655;42.590;23.364;2023-04-30T11:25:44;91287.78;;;13.24
71807;BMP280;59655;42.590;23.364;2023-04-30T11:28:36;91287.38;;;13.28
71807;BMP280;59655;42.590;23.364;2023-04-30T11:31:02;91284.63;;;13.45
71807;BMP280;59655;42.590;23.364;2023-04-30T11:33:32;91280.16;;;13.57
71807;BMP280;59655;42.590;23.364;2023-04-30T11:35:59;91278.22;;;13.68
71807;BMP280;59655;42.590;23.364;2023-04-30T11:38:27;91277.47;;;13.67
71807;BMP280;59655;42.590;23.364;2023-04-30T11:40:53;91284.22;;;13.68
71807;BMP280;59655;42.590;23.364;2023-04-30T11:43:24;91287.06;;;13.70
71807;BMP280;59655;42.590;23.364;2023-04-30T11:46:05;91292.66;;;13.74
71807;BMP280;59655;42.590;23.364;2023-04-30T11:48:36;91290.56;;;13.82
71807;BMP280;59655;42.590;23.364;2023-04-30T11:51:21;91284.25;;;13.88
71807;BMP280;59655;42.590;23.364;2023-04-30T11:53:49;91286.09;;;13.85
71807;BMP280;59655;42.590;23.364;2023-04-30T11:56:19;91282.28;;;13.88
71807;BMP280;59655;42.590;23.364;2023-04-30T11:58:46;91278.50;;;13.91
71807;BMP280;59655;42.590;23.364;2023-04-30T12:01:12;91277.94;;;14.02
71807;BMP280;59655;42.590;23.364;2023-04-30T12:03:47;91275.81;;;14.20
71807;BMP280;59655;42.590;23.364;2023-04-30T12:06:24;91274.53;;;14.31
71807;BMP280;59655;42.590;23.364;2023-04-30T12:08:54;91270.03;;;14.43
71807;BMP280;59655;42.590;23.364;2023-04-30T12:11:25;91271.00;;;14.38
71807;BMP280;59655;42.590;23.364;2023-04-30T12:13:52;91271.59;;;14.37
71807;BMP280;59655;42.590;23.364;2023-04-30T12:16:18;91273.38;;;14.44
71807;BMP280;59655;42.590;23.364;2023-04-30T12:18:44;91270.31;;;14.38
71807;BMP280;59655;42.590;23.364;2023-04-30T12:21:10;91279.16;;;14.31
71807;BMP280;59655;42.590;23.364;2023-04-30T12:23:36;91283.50;;;14.36
71807;BMP280;59655;42.590;23.364;2023-04-30T12:26:01;91276.69;;;14.73
71807;BMP280;59655;42.590;23.364;2023-04-30T12:28:27;91284.16;;;14.65
71807;BMP280;59655;42.590;23.364;2023-04-30T12:30:53;91285.06;;;14.48
71807;BMP280;59655;42.590;23.364;2023-04-30T12:33:18;91276.59;;;14.62
71807;BMP280;59655;42.590;23.364;2023-04-30T12:35:44;91282.38;;;14.58
71807;BMP280;59655;42.590;23.364;2023-04-30T12:38:15;91289.13;;;14.40
71807;BMP280;59655;42.590;23.364;2023-04-30T12:40:45;91295.06;;;14.28
71807;BMP280;59655;42.590;23.364;2023-04-30T12:43:14;91311.63;;;14.17
71807;BMP280;59655;42.590;23.364;2023-04-30T12:45:51;91320.63;;;14.02
71807;BMP280;59655;42.590;23.364;2023-04-30T12:48:19;91309.41;;;13.94
71807;BMP280;59655;42.590;23.364;2023-04-30T12:53:21;91307.56;;;13.87
71807;BMP280;59655;42.590;23.364;2023-04-30T12:56:10;91308.81;;;13.76
71807;BMP280;59655;42.590;23.364;2023-04-30T12:58:37;91313.00;;;13.70
71807;BMP280;59655;42.590;23.364;2023-04-30T13:01:03;91304.03;;;13.65
71807;BMP280;59655;42.590;23.364;2023-04-30T13:03:29;91305.56;;;13.68
71807;BMP280;59655;42.590;23.364;2023-04-30T13:05:54;91310.34;;;13.70
71807;BMP280;59655;42.590;23.364;2023-04-30T13:08:20;91311.06;;;13.90
71807;BMP280;59655;42.590;23.364;2023-04-30T13:10:47;91302.13;;;14.74
71807;BMP280;59655;42.590;23.364;2023-04-30T13:13:14;91297.41;;;16.12
71807;BMP280;59655;42.590;23.364;2023-04-30T13:15:41;91308.97;;;15.50
71807;BMP280;59655;42.590;23.364;2023-04-30T13:18:07;91294.53;;;15.43
71807;BMP280;59655;42.590;23.364;2023-04-30T13:20:37;91299.69;;;17.19
71807;BMP280;59655;42.590;23.364;2023-04-30T13:23:03;91292.44;;;18.59
71807;BMP280;59655;42.590;23.364;2023-04-30T13:25:29;91296.88;;;19.35
71807;BMP280;59655;42.590;23.364;2023-04-30T13:27:55;91285.81;;;19.15
71807;BMP280;59655;42.590;23.364;2023-04-30T13:30:22;91280.09;;;19.36
71807;BMP280;59655;42.590;23.364;2023-04-30T13:32:50;91266.97;;;20.02
71807;BMP280;59655;42.590;23.364;2023-04-30T13:35:17;91261.56;;;20.47
71807;BMP280;59655;42.590;23.364;2023-04-30T13:37:43;91255.66;;;20.35
71807;BMP280;59655;42.590;23.364;2023-04-30T13:40:10;91257.59;;;20.03
71807;BMP280;59655;42.590;23.364;2023-04-30T13:42:37;91253.47;;;19.56
71807;BMP280;59655;42.590;23.364;2023-04-30T13:45:05;91250.31;;;20.21
71807;BMP280;59655;42.590;23.364;2023-04-30T13:47:30;91248.38;;;19.63
71807;BMP280;59655;42.590;23.364;2023-04-30T13:49:56;91246.56;;;18.82
71807;BMP280;59655;42.590;23.364;2023-04-30T13:52:22;91245.22;;;18.42
71807;BMP280;59655;42.590;23.364;2023-04-30T13:54:48;91249.38;;;18.06
71807;BMP280;59655;42.590;23.364;2023-04-30T13:57:13;91255.38;;;17.67
71807;BMP280;59655;42.590;23.364;2023-04-30T13:59:39;91254.09;;;17.19
71807;BMP280;59655;42.590;23.364;2023-04-30T14:02:05;91254.22;;;16.39
71807;BMP280;59655;42.590;23.364;2023-04-30T14:04:31;91250.25;;;16.63
71807;BMP280;59655;42.590;23.364;2023-04-30T14:06:56;91244.91;;;16.63
71807;BMP280;59655;42.590;23.364;2023-04-30T14:09:22;91247.22;;;16.57
71807;BMP280;59655;42.590;23.364;2023-04-30T14:11:48;91238.00;;;16.37
71807;BMP280;59655;42.590;23.364;2023-04-30T14:14:13;91239.97;;;16.24
71807;BMP280;59655;42.590;23.364;2023-04-30T14:16:39;91240.84;;;16.74
71807;BMP280;59655;42.590;23.364;2023-04-30T14:19:04;91253.28;;;17.16
71807;BMP280;59655;42.590;23.364;2023-04-30T14:21:30;91249.44;;;17.19
71807;BMP280;59655;42.590;23.364;2023-04-30T14:23:56;91242.16;;;18.08
71807;BMP280;59655;42.590;23.364;2023-04-30T14:26:21;91248.25;;;18.62
71807;BMP280;59655;42.590;23.364;2023-04-30T14:28:47;91236.53;;;18.30
71807;BMP280;59655;42.590;23.364;2023-04-30T14:31:12;91243.88;;;18.69